sensor_id;sensor_type;location;lat;lon;timestamp;P1;durP1;ratioP1;P2;durP2;ratioP2
24521;SDS011;12680;57.804;12.190;2022-07-29T00:01:03;1.92;;;1.20;;
24521;SDS011;12680;57.804;12.190;2022-07-29T00:03:30;7.40;;;1.25;;
24521;SDS011;12680;57.804;12.190;2022-07-29T00:05:57;6.38;;;1.30;;
24521;SDS011;12680;57.804;12.190;2022-07-29T00:08:26;2.97;;;1.50;;
24521;SDS011;12680;57.804;12.190;2022-07-29T00:10:53;6.03;;;1.27;;
24521;SDS011;12680;57.804;12.190;2022-07-29T00:13:20;3.72;;;1.45;;
24521;SDS011;12680;57.804;12.190;2022-07-29T00:15:58;2.25;;;1.10;;
24521;SDS011;12680;57.804;12.190;2022-07-29T00:18:30;2.80;;;1.38;;
24521;SDS011;12680;57.804;12.190;2022-07-29T00:20:57;4.07;;;1.65;;
24521;SDS011;12680;57.804;12.190;2022-07-29T00:23:24;5.30;;;1.33;;
24521;SDS011;12680;57.804;12.190;2022-07-29T00:25:51;3.03;;;1.20;;
24521;SDS011;12680;57.804;12.190;2022-07-29T00:28:18;3.05;;;1.27;;
24521;SDS011;12680;57.804;12.190;2022-07-29T00:30:45;2.42;;;1.35;;
24521;SDS011;12680;57.804;12.190;2022-07-29T00:33:12;2.03;;;1.45;;
24521;SDS011;12680;57.804;12.190;2022-07-29T00:35:40;3.28;;;1.65;;
24521;SDS011;12680;57.804;12.190;2022-07-29T00:38:10;4.85;;;1.30;;
24521;SDS011;12680;57.804;12.190;2022-07-29T00:40:42;2.22;;;1.23;;
24521;SDS011;12680;57.804;12.190;2022-07-29T00:43:11;3.42;;;1.30;;
24521;SDS011;12680;57.804;12.190;2022-07-29T00:45:39;4.75;;;1.65;;
24521;SDS011;12680;57.804;12.190;2022-07-29T00:48:10;2.58;;;1.52;;
24521;SDS011;12680;57.804;12.190;2022-07-29T00:50:37;4.07;;;1.50;;
24521;SDS011;12680;57.804;12.190;2022-07-29T00:53:05;4.20;;;1.88;;
24521;SDS011;12680;57.804;12.190;2022-07-29T00:55:34;4.00;;;1.30;;
24521;SDS011;12680;57.804;12.190;2022-07-29T00:58:01;3.53;;;1.40;;
24521;SDS011;12680;57.804;12.190;2022-07-29T01:00:29;4.35;;;1.17;;
24521;SDS011;12680;57.804;12.190;2022-07-29T01:02:56;2.33;;;1.33;;
24521;SDS011;12680;57.804;12.190;2022-07-29T01:05:24;2.13;;;1.48;;
24521;SDS011;12680;57.804;12.190;2022-07-29T01:08:13;2.63;;;1.40;;
24521;SDS011;12680;57.804;12.190;2022-07-29T01:10:42;3.58;;;1.42;;
24521;SDS011;12680;57.804;12.190;2022-07-29T01:13:10;5.30;;;1.50;;
24521;SDS011;12680;57.804;12.190;2022-07-29T01:15:41;3.60;;;1.30;;
24521;SDS011;12680;57.804;12.190;2022-07-29T01:18:20;2.35;;;1.50;;
24521;SDS011;12680;57.804;12.190;2022-07-29T01:26:54;2.25;;;1.42;;
24521;SDS011;12680;57.804;12.190;2022-07-29T01:29:38;4.18;;;1.60;;
24521;SDS011;12680;57.804;12.190;2022-07-29T01:32:13;3.78;;;1.70;;
24521;SDS011;12680;57.804;12.190;2022-07-29T01:34:59;3.80;;;1.90;;
24521;SDS011;12680;57.804;12.190;2022-07-29T01:37:37;5.63;;;1.80;;
24521;SDS011;12680;57.804;12.190;2022-07-29T01:40:20;5.18;;;1.83;;
24521;SDS011;12680;57.804;12.190;2022-07-29T01:42:54;3.45;;;1.88;;
24521;SDS011;12680;57.804;12.190;2022-07-29T01:45:30;6.22;;;1.75;;
24521;SDS011;12680;57.804;12.190;2022-07-29T01:48:05;7.07;;;1.95;;
24521;SDS011;12680;57.804;12.190;2022-07-29T01:50:55;4.35;;;1.90;;
24521;SDS011;12680;57.804;12.190;2022-07-29T01:53:43;5.93;;;1.70;;
24521;SDS011;12680;57.804;12.190;2022-07-29T01:56:26;4.03;;;1.80;;
24521;SDS011;12680;57.804;12.190;2022-07-29T01:59:00;4.13;;;2.00;;
24521;SDS011;12680;57.804;12.190;2022-07-29T02:01:30;4.60;;;1.67;;
24521;SDS011;12680;57.804;12.190;2022-07-29T02:03:59;7.55;;;1.48;;
24521;SDS011;12680;57.804;12.190;2022-07-29T02:06:29;3.22;;;1.95;;
24521;SDS011;12680;57.804;12.190;2022-07-29T02:08:59;4.38;;;1.67;;
24521;SDS011;12680;57.804;12.190;2022-07-29T02:11:30;4.15;;;1.52;;
24521;SDS011;12680;57.804;12.190;2022-07-29T02:14:00;2.03;;;1.57;;
24521;SDS011;12680;57.804;12.190;2022-07-29T02:16:29;1.75;;;1.13;;
24521;SDS011;12680;57.804;12.190;2022-07-29T02:18:59;3.47;;;1.42;;
24521;SDS011;12680;57.804;12.190;2022-07-29T02:21:28;6.07;;;1.70;;
24521;SDS011;12680;57.804;12.190;2022-07-29T02:23:57;3.35;;;1.45;;
24521;SDS011;12680;57.804;12.190;2022-07-29T02:26:27;3.22;;;1.40;;
24521;SDS011;12680;57.804;12.190;2022-07-29T02:28:56;10.27;;;1.40;;
24521;SDS011;12680;57.804;12.190;2022-07-29T02:31:25;6.95;;;1.50;;
24521;SDS011;12680;57.804;12.190;2022-07-29T02:33:56;2.22;;;1.48;;
24521;SDS011;12680;57.804;12.190;2022-07-29T02:36:25;1.20;;;1.10;;
24521;SDS011;12680;57.804;12.190;2022-07-29T02:38:54;1.85;;;1.35;;
24521;SDS011;12680;57.804;12.190;2022-07-29T02:41:26;2.65;;;1.13;;
24521;SDS011;12680;57.804;12.190;2022-07-29T02:44:03;3.60;;;1.40;;
24521;SDS011;12680;57.804;12.190;2022-07-29T02:46:41;1.45;;;1.35;;
24521;SDS011;12680;57.804;12.190;2022-07-29T02:49:37;1.33;;;1.23;;
24521;SDS011;12680;57.804;12.190;2022-07-29T02:52:12;5.32;;;1.30;;
24521;SDS011;12680;57.804;12.190;2022-07-29T02:55:01;3.43;;;1.60;;
24521;SDS011;12680;57.804;12.190;2022-07-29T02:57:49;2.63;;;1.35;;
24521;SDS011;12680;57.804;12.190;2022-07-29T03:00:28;2.83;;;1.60;;
24521;SDS011;12680;57.804;12.190;2022-07-29T03:03:00;4.88;;;1.60;;
24521;SDS011;12680;57.804;12.190;2022-07-29T03:05:33;4.97;;;1.60;;
24521;SDS011;12680;57.804;12.190;2022-07-29T03:08:04;2.08;;;1.23;;
24521;SDS011;12680;57.804;12.190;2022-07-29T03:10:32;3.08;;;1.50;;
24521;SDS011;12680;57.804;12.190;2022-07-29T03:13:01;3.47;;;1.65;;
24521;SDS011;12680;57.804;12.190;2022-07-29T03:15:28;3.90;;;1.67;;
24521;SDS011;12680;57.804;12.190;2022-07-29T03:17:56;3.05;;;1.50;;
24521;SDS011;12680;57.804;12.190;2022-07-29T03:20:25;2.65;;;1.30;;
24521;SDS011;12680;57.804;12.190;2022-07-29T03:22:52;2.67;;;1.75;;
24521;SDS011;12680;57.804;12.190;2022-07-29T03:25:19;5.78;;;1.20;;
24521;SDS011;12680;57.804;12.190;2022-07-29T03:27:47;4.00;;;1.33;;
24521;SDS011;12680;57.804;12.190;2022-07-29T03:30:15;2.28;;;1.45;;
24521;SDS011;12680;57.804;12.190;2022-07-29T03:35:14;3.63;;;1.50;;
24521;SDS011;12680;57.804;12.190;2022-07-29T03:37:43;4.45;;;1.33;;
24521;SDS011;12680;57.804;12.190;2022-07-29T03:40:11;1.13;;;1.00;;
24521;SDS011;12680;57.804;12.190;2022-07-29T03:42:44;3.35;;;1.20;;
24521;SDS011;12680;57.804;12.190;2022-07-29T03:45:15;2.05;;;1.17;;
24521;SDS011;12680;57.804;12.190;2022-07-29T03:47:46;3.20;;;1.30;;
24521;SDS011;12680;57.804;12.190;2022-07-29T03:50:26;1.15;;;1.00;;
24521;SDS011;12680;57.804;12.190;2022-07-29T03:52:56;2.60;;;0.93;;
24521;SDS011;12680;57.804;12.190;2022-07-29T03:55:24;3.45;;;1.50;;
24521;SDS011;12680;57.804;12.190;2022-07-29T03:57:52;1.73;;;1.00;;
24521;SDS011;12680;57.804;12.190;2022-07-29T04:00:22;3.85;;;1.08;;
24521;SDS011;12680;57.804;12.190;2022-07-29T04:02:51;3.13;;;1.10;;
24521;SDS011;12680;57.804;12.190;2022-07-29T04:05:19;2.13;;;0.95;;
24521;SDS011;12680;57.804;12.190;2022-07-29T04:07:47;3.42;;;1.17;;
24521;SDS011;12680;57.804;12.190;2022-07-29T04:10:15;1.88;;;0.90;;
24521;SDS011;12680;57.804;12.190;2022-07-29T04:12:57;4.07;;;1.20;;
24521;SDS011;12680;57.804;12.190;2022-07-29T04:15:24;3.13;;;1.10;;
24521;SDS011;12680;57.804;12.190;2022-07-29T04:17:57;2.00;;;1.30;;
24521;SDS011;12680;57.804;12.190;2022-07-29T04:20:25;1.48;;;1.33;;
24521;SDS011;12680;57.804;12.190;2022-07-29T04:22:52;5.13;;;1.38;;
24521;SDS011;12680;57.804;12.190;2022-07-29T04:25:19;1.90;;;1.10;;
24521;SDS011;12680;57.804;12.190;2022-07-29T04:27:46;3.25;;;1.30;;
24521;SDS011;12680;57.804;12.190;2022-07-29T04:30:29;2.90;;;1.20;;
24521;SDS011;12680;57.804;12.190;2022-07-29T04:32:57;2.40;;;1.35;;
24521;SDS011;12680;57.804;12.190;2022-07-29T04:35:27;4.22;;;1.55;;
24521;SDS011;12680;57.804;12.190;2022-07-29T04:38:04;3.38;;;1.40;;
24521;SDS011;12680;57.804;12.190;2022-07-29T04:40:40;3.10;;;1.80;;
24521;SDS011;12680;57.804;12.190;2022-07-29T04:43:08;1.77;;;1.48;;
24521;SDS011;12680;57.804;12.190;2022-07-29T04:45:37;7.30;;;1.50;;
24521;SDS011;12680;57.804;12.190;2022-07-29T04:48:04;2.10;;;1.27;;
24521;SDS011;12680;57.804;12.190;2022-07-29T04:50:31;5.32;;;1.80;;
24521;SDS011;12680;57.804;12.190;2022-07-29T04:52:58;2.67;;;1.30;;
24521;SDS011;12680;57.804;12.190;2022-07-29T04:55:25;4.63;;;1.48;;
24521;SDS011;12680;57.804;12.190;2022-07-29T04:57:53;3.95;;;1.48;;
24521;SDS011;12680;57.804;12.190;2022-07-29T05:00:20;5.82;;;1.55;;
24521;SDS011;12680;57.804;12.190;2022-07-29T05:02:53;3.30;;;1.75;;
24521;SDS011;12680;57.804;12.190;2022-07-29T05:05:20;2.92;;;1.40;;
24521;SDS011;12680;57.804;12.190;2022-07-29T05:07:47;3.38;;;1.52;;
24521;SDS011;12680;57.804;12.190;2022-07-29T05:10:14;5.35;;;1.70;;
24521;SDS011;12680;57.804;12.190;2022-07-29T05:12:41;2.72;;;1.58;;
24521;SDS011;12680;57.804;12.190;2022-07-29T05:15:09;2.78;;;1.50;;
24521;SDS011;12680;57.804;12.190;2022-07-29T05:17:36;2.50;;;1.52;;
24521;SDS011;12680;57.804;12.190;2022-07-29T05:20:04;3.00;;;1.90;;
24521;SDS011;12680;57.804;12.190;2022-07-29T05:22:32;3.30;;;1.60;;
24521;SDS011;12680;57.804;12.190;2022-07-29T05:24:59;4.57;;;2.13;;
24521;SDS011;12680;57.804;12.190;2022-07-29T05:27:33;3.85;;;1.80;;
24521;SDS011;12680;57.804;12.190;2022-07-29T05:30:02;1.88;;;1.52;;
24521;SDS011;12680;57.804;12.190;2022-07-29T05:32:29;2.03;;;1.48;;
24521;SDS011;12680;57.804;12.190;2022-07-29T05:34:56;2.13;;;1.40;;
24521;SDS011;12680;57.804;12.190;2022-07-29T05:37:23;3.60;;;1.88;;
24521;SDS011;12680;57.804;12.190;2022-07-29T05:39:51;3.40;;;1.50;;
24521;SDS011;12680;57.804;12.190;2022-07-29T05:44:50;4.22;;;1.90;;
24521;SDS011;12680;57.804;12.190;2022-07-29T05:47:17;5.00;;;1.75;;
24521;SDS011;12680;57.804;12.190;2022-07-29T05:49:45;4.97;;;2.13;;
24521;SDS011;12680;57.804;12.190;2022-07-29T05:52:12;4.35;;;1.77;;
24521;SDS011;12680;57.804;12.190;2022-07-29T05:54:39;1.85;;;1.63;;
24521;SDS011;12680;57.804;12.190;2022-07-29T05:57:07;2.40;;;1.48;;
24521;SDS011;12680;57.804;12.190;2022-07-29T05:59:38;4.20;;;1.25;;
24521;SDS011;12680;57.804;12.190;2022-07-29T06:02:05;2.08;;;1.35;;
24521;SDS011;12680;57.804;12.190;2022-07-29T06:04:32;2.33;;;1.42;;
24521;SDS011;12680;57.804;12.190;2022-07-29T06:07:00;4.18;;;1.55;;
24521;SDS011;12680;57.804;12.190;2022-07-29T06:09:28;5.55;;;1.70;;
24521;SDS011;12680;57.804;12.190;2022-07-29T06:11:55;4.30;;;1.50;;
24521;SDS011;12680;57.804;12.190;2022-07-29T06:14:24;2.72;;;1.30;;
24521;SDS011;12680;57.804;12.190;2022-07-29T06:16:52;4.05;;;1.35;;
24521;SDS011;12680;57.804;12.190;2022-07-29T06:19:20;5.03;;;1.40;;
24521;SDS011;12680;57.804;12.190;2022-07-29T06:21:47;1.85;;;1.40;;
24521;SDS011;12680;57.804;12.190;2022-07-29T06:24:15;4.35;;;1.30;;
24521;SDS011;12680;57.804;12.190;2022-07-29T06:26:43;2.92;;;1.52;;
24521;SDS011;12680;57.804;12.190;2022-07-29T06:29:10;6.10;;;1.60;;
24521;SDS011;12680;57.804;12.190;2022-07-29T06:31:37;4.68;;;1.75;;
24521;SDS011;12680;57.804;12.190;2022-07-29T06:34:05;2.90;;;1.48;;
24521;SDS011;12680;57.804;12.190;2022-07-29T06:36:35;2.80;;;1.40;;
24521;SDS011;12680;57.804;12.190;2022-07-29T06:39:06;3.30;;;1.30;;
24521;SDS011;12680;57.804;12.190;2022-07-29T06:41:34;5.38;;;1.58;;
24521;SDS011;12680;57.804;12.190;2022-07-29T06:44:01;2.83;;;1.30;;
24521;SDS011;12680;57.804;12.190;2022-07-29T06:46:31;3.50;;;1.42;;
24521;SDS011;12680;57.804;12.190;2022-07-29T06:48:58;6.35;;;1.17;;
24521;SDS011;12680;57.804;12.190;2022-07-29T06:51:28;4.13;;;1.50;;
24521;SDS011;12680;57.804;12.190;2022-07-29T06:53:55;3.40;;;1.20;;
24521;SDS011;12680;57.804;12.190;2022-07-29T06:56:27;3.47;;;1.13;;
24521;SDS011;12680;57.804;12.190;2022-07-29T06:59:03;1.50;;;1.02;;
24521;SDS011;12680;57.804;12.190;2022-07-29T07:01:31;2.40;;;1.30;;
24521;SDS011;12680;57.804;12.190;2022-07-29T07:03:59;4.40;;;1.20;;
24521;SDS011;12680;57.804;12.190;2022-07-29T07:06:26;1.52;;;0.80;;
24521;SDS011;12680;57.804;12.190;2022-07-29T07:08:54;3.28;;;1.17;;
24521;SDS011;12680;57.804;12.190;2022-07-29T07:11:21;2.80;;;1.10;;
24521;SDS011;12680;57.804;12.190;2022-07-29T07:13:48;2.50;;;1.23;;
24521;SDS011;12680;57.804;12.190;2022-07-29T07:16:15;3.00;;;1.10;;
24521;SDS011;12680;57.804;12.190;2022-07-29T07:18:43;2.70;;;1.05;;
24521;SDS011;12680;57.804;12.190;2022-07-29T07:21:11;2.33;;;1.00;;
24521;SDS011;12680;57.804;12.190;2022-07-29T07:23:44;2.03;;;1.30;;
24521;SDS011;12680;57.804;12.190;2022-07-29T07:26:12;1.70;;;1.05;;
24521;SDS011;12680;57.804;12.190;2022-07-29T07:28:39;2.60;;;1.50;;
24521;SDS011;12680;57.804;12.190;2022-07-29T07:31:06;2.45;;;1.30;;
24521;SDS011;12680;57.804;12.190;2022-07-29T07:33:34;6.75;;;1.40;;
24521;SDS011;12680;57.804;12.190;2022-07-29T07:36:01;3.20;;;1.20;;
24521;SDS011;12680;57.804;12.190;2022-07-29T07:38:28;6.88;;;1.63;;
24521;SDS011;12680;57.804;12.190;2022-07-29T07:40:55;1.25;;;1.00;;
24521;SDS011;12680;57.804;12.190;2022-07-29T07:43:22;2.67;;;1.20;;
24521;SDS011;12680;57.804;12.190;2022-07-29T07:45:49;3.60;;;1.20;;
24521;SDS011;12680;57.804;12.190;2022-07-29T07:48:16;3.78;;;1.10;;
24521;SDS011;12680;57.804;12.190;2022-07-29T07:50:44;2.45;;;1.02;;
24521;SDS011;12680;57.804;12.190;2022-07-29T07:53:11;2.22;;;0.90;;
24521;SDS011;12680;57.804;12.190;2022-07-29T07:55:41;2.90;;;1.10;;
24521;SDS011;12680;57.804;12.190;2022-07-29T07:58:29;4.20;;;1.42;;
24521;SDS011;12680;57.804;12.190;2022-07-29T08:00:57;2.85;;;1.10;;
24521;SDS011;12680;57.804;12.190;2022-07-29T08:03:24;3.17;;;1.00;;
24521;SDS011;12680;57.804;12.190;2022-07-29T08:05:51;5.03;;;1.70;;
24521;SDS011;12680;57.804;12.190;2022-07-29T08:08:18;5.13;;;1.20;;
24521;SDS011;12680;57.804;12.190;2022-07-29T08:10:45;1.75;;;1.10;;
24521;SDS011;12680;57.804;12.190;2022-07-29T08:13:19;4.05;;;1.40;;
24521;SDS011;12680;57.804;12.190;2022-07-29T08:15:48;3.55;;;1.10;;
24521;SDS011;12680;57.804;12.190;2022-07-29T08:18:24;2.20;;;1.00;;
24521;SDS011;12680;57.804;12.190;2022-07-29T08:20:52;2.00;;;1.02;;
24521;SDS011;12680;57.804;12.190;2022-07-29T08:23:20;3.67;;;0.95;;
24521;SDS011;12680;57.804;12.190;2022-07-29T08:25:50;1.65;;;0.88;;
24521;SDS011;12680;57.804;12.190;2022-07-29T08:28:20;4.00;;;1.42;;
24521;SDS011;12680;57.804;12.190;2022-07-29T08:30:51;2.45;;;0.90;;
24521;SDS011;12680;57.804;12.190;2022-07-29T08:33:18;2.78;;;1.30;;
24521;SDS011;12680;57.804;12.190;2022-07-29T08:35:45;3.47;;;1.08;;
24521;SDS011;12680;57.804;12.190;2022-07-29T08:38:12;4.20;;;1.10;;
24521;SDS011;12680;57.804;12.190;2022-07-29T08:40:39;2.53;;;1.17;;
24521;SDS011;12680;57.804;12.190;2022-07-29T08:43:07;1.60;;;1.15;;
24521;SDS011;12680;57.804;12.190;2022-07-29T08:45:44;1.52;;;1.00;;
24521;SDS011;12680;57.804;12.190;2022-07-29T08:48:14;1.65;;;0.90;;
24521;SDS011;12680;57.804;12.190;2022-07-29T08:50:44;1.92;;;1.00;;
24521;SDS011;12680;57.804;12.190;2022-07-29T08:53:15;3.20;;;1.08;;
24521;SDS011;12680;57.804;12.190;2022-07-29T08:55:45;1.90;;;1.00;;
24521;SDS011;12680;57.804;12.190;2022-07-29T08:58:13;5.35;;;0.90;;
24521;SDS011;12680;57.804;12.190;2022-07-29T09:00:42;2.15;;;1.00;;
24521;SDS011;12680;57.804;12.190;2022-07-29T09:03:15;1.08;;;0.77;;
24521;SDS011;12680;57.804;12.190;2022-07-29T09:05:46;2.75;;;1.10;;
24521;SDS011;12680;57.804;12.190;2022-07-29T09:08:14;3.75;;;1.00;;
24521;SDS011;12680;57.804;12.190;2022-07-29T09:10:43;1.05;;;0.90;;
24521;SDS011;12680;57.804;12.190;2022-07-29T09:13:10;2.45;;;1.27;;
24521;SDS011;12680;57.804;12.190;2022-07-29T09:15:38;2.70;;;1.00;;
24521;SDS011;12680;57.804;12.190;2022-07-29T09:18:05;1.70;;;0.75;;
24521;SDS011;12680;57.804;12.190;2022-07-29T09:20:32;1.90;;;0.90;;
24521;SDS011;12680;57.804;12.190;2022-07-29T09:23:18;2.17;;;0.93;;
24521;SDS011;12680;57.804;12.190;2022-07-29T09:25:49;2.17;;;0.90;;
24521;SDS011;12680;57.804;12.190;2022-07-29T09:28:17;2.42;;;0.90;;
24521;SDS011;12680;57.804;12.190;2022-07-29T09:30:54;1.33;;;0.77;;
24521;SDS011;12680;57.804;12.190;2022-07-29T09:33:31;4.43;;;0.93;;
24521;SDS011;12680;57.804;12.190;2022-07-29T09:36:08;4.18;;;0.98;;
24521;SDS011;12680;57.804;12.190;2022-07-29T09:38:36;1.33;;;0.85;;
24521;SDS011;12680;57.804;12.190;2022-07-29T09:41:04;1.77;;;0.80;;
24521;SDS011;12680;57.804;12.190;2022-07-29T09:43:32;1.58;;;0.80;;
24521;SDS011;12680;57.804;12.190;2022-07-29T09:46:09;1.38;;;0.70;;
24521;SDS011;12680;57.804;12.190;2022-07-29T09:48:40;2.13;;;0.97;;
24521;SDS011;12680;57.804;12.190;2022-07-29T09:51:17;1.02;;;0.80;;
24521;SDS011;12680;57.804;12.190;2022-07-29T09:53:51;0.85;;;0.68;;
24521;SDS011;12680;57.804;12.190;2022-07-29T09:56:19;4.40;;;0.90;;
24521;SDS011;12680;57.804;12.190;2022-07-29T09:58:46;0.93;;;0.60;;
24521;SDS011;12680;57.804;12.190;2022-07-29T10:01:13;2.55;;;0.90;;
24521;SDS011;12680;57.804;12.190;2022-07-29T10:03:51;1.38;;;0.73;;
24521;SDS011;12680;57.804;12.190;2022-07-29T10:06:18;1.77;;;1.00;;
24521;SDS011;12680;57.804;12.190;2022-07-29T10:08:46;0.95;;;0.70;;
24521;SDS011;12680;57.804;12.190;2022-07-29T10:11:14;1.30;;;0.70;;
24521;SDS011;12680;57.804;12.190;2022-07-29T10:13:43;1.33;;;0.82;;
24521;SDS011;12680;57.804;12.190;2022-07-29T10:16:12;1.25;;;0.50;;
24521;SDS011;12680;57.804;12.190;2022-07-29T10:18:41;1.08;;;0.80;;
24521;SDS011;12680;57.804;12.190;2022-07-29T10:21:09;0.85;;;0.60;;
24521;SDS011;12680;57.804;12.190;2022-07-29T10:23:57;1.27;;;0.68;;
24521;SDS011;12680;57.804;12.190;2022-07-29T10:26:28;0.60;;;0.60;;
24521;SDS011;12680;57.804;12.190;2022-07-29T10:28:56;0.50;;;0.50;;
24521;SDS011;12680;57.804;12.190;2022-07-29T10:31:34;2.33;;;1.00;;
24521;SDS011;12680;57.804;12.190;2022-07-29T10:43:17;0.70;;;0.70;;
24521;SDS011;12680;57.804;12.190;2022-07-29T10:45:54;2.83;;;0.70;;
24521;SDS011;12680;57.804;12.190;2022-07-29T10:48:25;2.38;;;0.77;;
24521;SDS011;12680;57.804;12.190;2022-07-29T10:50:57;0.90;;;0.80;;
24521;SDS011;12680;57.804;12.190;2022-07-29T10:54:03;1.30;;;0.47;;
24521;SDS011;12680;57.804;12.190;2022-07-29T10:56:27;1.00;;;0.73;;
24521;SDS011;12680;57.804;12.190;2022-07-29T11:01:47;0.70;;;0.63;;
24521;SDS011;12680;57.804;12.190;2022-07-29T11:07:13;1.20;;;1.10;;
24521;SDS011;12680;57.804;12.190;2022-07-29T11:09:42;1.30;;;0.70;;
24521;SDS011;12680;57.804;12.190;2022-07-29T11:15:14;2.88;;;0.90;;
24521;SDS011;12680;57.804;12.190;2022-07-29T11:28:51;2.83;;;0.90;;
24521;SDS011;12680;57.804;12.190;2022-07-29T11:31:41;1.38;;;0.80;;
24521;SDS011;12680;57.804;12.190;2022-07-29T11:34:16;2.15;;;1.00;;
24521;SDS011;12680;57.804;12.190;2022-07-29T11:39:35;1.13;;;0.70;;
24521;SDS011;12680;57.804;12.190;2022-07-29T11:47:53;2.05;;;0.82;;
24521;SDS011;12680;57.804;12.190;2022-07-29T11:50:47;0.80;;;0.80;;
24521;SDS011;12680;57.804;12.190;2022-07-29T11:53:14;1.38;;;1.00;;
24521;SDS011;12680;57.804;12.190;2022-07-29T11:55:43;1.77;;;1.02;;
24521;SDS011;12680;57.804;12.190;2022-07-29T11:58:30;2.72;;;0.93;;
24521;SDS011;12680;57.804;12.190;2022-07-29T12:00:58;2.67;;;0.90;;
24521;SDS011;12680;57.804;12.190;2022-07-29T12:03:30;1.60;;;0.90;;
24521;SDS011;12680;57.804;12.190;2022-07-29T12:06:17;1.10;;;1.00;;
24521;SDS011;12680;57.804;12.190;2022-07-29T12:08:46;1.95;;;1.00;;
24521;SDS011;12680;57.804;12.190;2022-07-29T12:11:19;3.42;;;1.10;;
24521;SDS011;12680;57.804;12.190;2022-07-29T12:13:52;3.13;;;1.05;;
24521;SDS011;12680;57.804;12.190;2022-07-29T12:16:20;3.22;;;1.10;;
24521;SDS011;12680;57.804;12.190;2022-07-29T12:18:58;1.98;;;1.17;;
24521;SDS011;12680;57.804;12.190;2022-07-29T12:21:28;2.70;;;1.10;;
24521;SDS011;12680;57.804;12.190;2022-07-29T12:23:56;6.55;;;1.20;;
24521;SDS011;12680;57.804;12.190;2022-07-29T12:26:34;1.40;;;0.90;;
24521;SDS011;12680;57.804;12.190;2022-07-29T12:29:02;3.10;;;1.10;;
24521;SDS011;12680;57.804;12.190;2022-07-29T12:31:40;2.97;;;1.00;;
24521;SDS011;12680;57.804;12.190;2022-07-29T12:34:23;7.85;;;1.20;;
24521;SDS011;12680;57.804;12.190;2022-07-29T12:36:53;5.35;;;1.17;;
24521;SDS011;12680;57.804;12.190;2022-07-29T12:39:20;2.60;;;1.20;;
24521;SDS011;12680;57.804;12.190;2022-07-29T12:41:48;5.68;;;1.08;;
24521;SDS011;12680;57.804;12.190;2022-07-29T12:44:15;1.92;;;1.00;;
24521;SDS011;12680;57.804;12.190;2022-07-29T12:46:42;2.53;;;1.05;;
24521;SDS011;12680;57.804;12.190;2022-07-29T12:49:09;4.28;;;1.52;;
24521;SDS011;12680;57.804;12.190;2022-07-29T12:51:37;3.35;;;0.95;;
24521;SDS011;12680;57.804;12.190;2022-07-29T12:54:07;3.53;;;1.20;;
24521;SDS011;12680;57.804;12.190;2022-07-29T12:56:34;4.43;;;0.98;;
24521;SDS011;12680;57.804;12.190;2022-07-29T12:59:11;2.45;;;1.17;;
24521;SDS011;12680;57.804;12.190;2022-07-29T13:01:38;2.60;;;1.30;;
24521;SDS011;12680;57.804;12.190;2022-07-29T13:04:05;2.65;;;1.10;;
24521;SDS011;12680;57.804;12.190;2022-07-29T13:14:20;1.38;;;0.90;;
24521;SDS011;12680;57.804;12.190;2022-07-29T13:17:21;4.05;;;1.08;;
24521;SDS011;12680;57.804;12.190;2022-07-29T13:19:50;2.28;;;0.95;;
24521;SDS011;12680;57.804;12.190;2022-07-29T13:22:34;0.82;;;0.77;;
24521;SDS011;12680;57.804;12.190;2022-07-29T13:25:01;2.00;;;1.10;;
24521;SDS011;12680;57.804;12.190;2022-07-29T13:27:29;4.30;;;1.15;;
24521;SDS011;12680;57.804;12.190;2022-07-29T13:29:59;1.27;;;0.90;;
24521;SDS011;12680;57.804;12.190;2022-07-29T13:32:28;2.88;;;1.00;;
24521;SDS011;12680;57.804;12.190;2022-07-29T13:34:57;4.78;;;1.13;;
24521;SDS011;12680;57.804;12.190;2022-07-29T13:37:27;7.05;;;1.60;;
24521;SDS011;12680;57.804;12.190;2022-07-29T13:39:56;3.80;;;1.17;;
24521;SDS011;12680;57.804;12.190;2022-07-29T13:42:23;3.40;;;1.40;;
24521;SDS011;12680;57.804;12.190;2022-07-29T13:44:51;2.55;;;1.00;;
24521;SDS011;12680;57.804;12.190;2022-07-29T13:47:19;5.07;;;1.38;;
24521;SDS011;12680;57.804;12.190;2022-07-29T13:49:47;2.65;;;1.00;;
24521;SDS011;12680;57.804;12.190;2022-07-29T13:52:15;1.75;;;1.05;;
24521;SDS011;12680;57.804;12.190;2022-07-29T13:54:43;1.85;;;1.20;;
24521;SDS011;12680;57.804;12.190;2022-07-29T13:57:11;2.70;;;1.00;;
24521;SDS011;12680;57.804;12.190;2022-07-29T13:59:39;2.15;;;0.90;;
24521;SDS011;12680;57.804;12.190;2022-07-29T14:02:08;2.17;;;0.95;;
24521;SDS011;12680;57.804;12.190;2022-07-29T14:04:36;3.78;;;1.10;;
24521;SDS011;12680;57.804;12.190;2022-07-29T14:07:05;2.25;;;1.10;;
24521;SDS011;12680;57.804;12.190;2022-07-29T14:09:33;2.05;;;1.00;;
24521;SDS011;12680;57.804;12.190;2022-07-29T14:12:06;2.30;;;0.98;;
24521;SDS011;12680;57.804;12.190;2022-07-29T14:14:34;4.13;;;1.00;;
24521;SDS011;12680;57.804;12.190;2022-07-29T14:17:03;2.38;;;0.95;;
24521;SDS011;12680;57.804;12.190;2022-07-29T14:19:33;1.27;;;0.73;;
24521;SDS011;12680;57.804;12.190;2022-07-29T14:22:04;1.98;;;0.88;;
24521;SDS011;12680;57.804;12.190;2022-07-29T14:24:34;1.40;;;1.00;;
24521;SDS011;12680;57.804;12.190;2022-07-29T14:27:02;2.78;;;0.95;;
24521;SDS011;12680;57.804;12.190;2022-07-29T14:29:33;1.95;;;1.17;;
24521;SDS011;12680;57.804;12.190;2022-07-29T14:32:07;2.17;;;1.00;;
24521;SDS011;12680;57.804;12.190;2022-07-29T14:34:37;1.55;;;0.70;;
24521;SDS011;12680;57.804;12.190;2022-07-29T14:37:04;2.13;;;0.88;;
24521;SDS011;12680;57.804;12.190;2022-07-29T14:39:32;2.78;;;0.93;;
24521;SDS011;12680;57.804;12.190;2022-07-29T14:42:08;1.25;;;0.90;;
24521;SDS011;12680;57.804;12.190;2022-07-29T14:44:38;1.63;;;1.00;;
24521;SDS011;12680;57.804;12.190;2022-07-29T14:47:06;1.25;;;0.80;;
24521;SDS011;12680;57.804;12.190;2022-07-29T14:49:34;4.38;;;1.20;;
24521;SDS011;12680;57.804;12.190;2022-07-29T14:52:01;1.20;;;0.85;;
24521;SDS011;12680;57.804;12.190;2022-07-29T14:54:29;3.22;;;0.95;;
24521;SDS011;12680;57.804;12.190;2022-07-29T14:56:56;2.47;;;1.08;;
24521;SDS011;12680;57.804;12.190;2022-07-29T14:59:24;2.25;;;1.02;;
24521;SDS011;12680;57.804;12.190;2022-07-29T15:01:51;3.20;;;0.85;;
24521;SDS011;12680;57.804;12.190;2022-07-29T15:04:19;1.88;;;0.93;;
24521;SDS011;12680;57.804;12.190;2022-07-29T15:06:46;2.00;;;0.77;;
24521;SDS011;12680;57.804;12.190;2022-07-29T15:09:13;2.55;;;0.95;;
24521;SDS011;12680;57.804;12.190;2022-07-29T15:11:41;4.53;;;1.30;;
24521;SDS011;12680;57.804;12.190;2022-07-29T15:14:08;4.28;;;1.00;;
24521;SDS011;12680;57.804;12.190;2022-07-29T15:16:35;2.03;;;1.15;;
24521;SDS011;12680;57.804;12.190;2022-07-29T15:19:07;4.90;;;1.30;;
24521;SDS011;12680;57.804;12.190;2022-07-29T15:21:34;6.47;;;1.25;;
24521;SDS011;12680;57.804;12.190;2022-07-29T15:24:13;1.98;;;0.90;;
24521;SDS011;12680;57.804;12.190;2022-07-29T15:26:40;3.33;;;1.10;;
24521;SDS011;12680;57.804;12.190;2022-07-29T15:29:08;2.33;;;1.10;;
24521;SDS011;12680;57.804;12.190;2022-07-29T15:31:36;3.30;;;1.15;;
24521;SDS011;12680;57.804;12.190;2022-07-29T15:34:03;3.95;;;1.08;;
24521;SDS011;12680;57.804;12.190;2022-07-29T15:36:31;1.70;;;1.00;;
24521;SDS011;12680;57.804;12.190;2022-07-29T15:39:19;2.17;;;1.10;;
24521;SDS011;12680;57.804;12.190;2022-07-29T15:41:47;5.55;;;1.10;;
24521;SDS011;12680;57.804;12.190;2022-07-29T15:44:14;2.30;;;1.17;;
24521;SDS011;12680;57.804;12.190;2022-07-29T15:46:41;2.67;;;1.08;;
24521;SDS011;12680;57.804;12.190;2022-07-29T15:49:35;4.25;;;1.20;;